createdAt,value
2017-09-09T00:00:00.830Z,0
2017-09-09T00:01:00.205Z,0
2017-09-09T00:02:00.580Z,0
2017-09-09T00:03:01.072Z,0
2017-09-09T00:04:00.950Z,0
2017-09-09T00:05:00.755Z,0
2017-09-09T00:06:01.044Z,0
2017-09-09T00:07:00.402Z,0
2017-09-09T00:08:00.711Z,0
2017-09-09T00:09:00.154Z,0
2017-09-09T00:10:00.031Z,0
2017-09-09T00:11:00.357Z,0
2017-09-09T00:12:00.309Z,0
2017-09-09T00:13:00.621Z,0
2017-09-09T00:14:00.893Z,0
2017-09-09T00:15:00.801Z,0
2017-09-09T00:16:00.350Z,0
2017-09-09T00:17:00.852Z,0
2017-09-09T00:18:00.562Z,0
2017-09-09T00:19:00.511Z,0
2017-09-09T00:20:00.172Z,0
2017-09-09T00:21:00.771Z,0
2017-09-09T00:21:59.834Z,0
2017-09-09T00:23:00.111Z,0
2017-09-09T00:24:00.928Z,0
2017-09-09T00:25:00.403Z,0
2017-09-09T00:26:00.380Z,0
2017-09-09T00:27:00.369Z,0
2017-09-09T00:28:00.663Z,0
2017-09-09T00:29:00.034Z,0
2017-09-09T00:30:00.090Z,0
2017-09-09T00:31:00.370Z,0
2017-09-09T00:31:59.981Z,0
2017-09-09T00:32:59.968Z,0
2017-09-09T00:34:00.244Z,0
2017-09-09T00:35:00.532Z,0
2017-09-09T00:36:00.207Z,0
2017-09-09T00:37:00.513Z,0
2017-09-09T00:37:59.871Z,0
2017-09-09T00:39:00.221Z,0
2017-09-09T00:40:00.153Z,0
2017-09-09T00:40:59.500Z,0
2017-09-09T00:42:00.102Z,0
2017-09-09T00:42:59.450Z,0
2017-09-09T00:44:00.391Z,0
2017-09-09T00:45:00.161Z,0
2017-09-09T00:46:00.145Z,0
2017-09-09T00:47:00.044Z,0
2017-09-09T00:47:59.438Z,0
2017-09-09T00:48:59.996Z,0
2017-09-09T00:50:00.280Z,0
2017-09-09T00:51:00.089Z,0
2017-09-09T00:51:59.651Z,0
2017-09-09T00:52:59.908Z,0
2017-09-09T00:54:00.190Z,0
2017-09-09T00:54:59.891Z,0
2017-09-09T00:55:59.862Z,0
2017-09-09T00:56:59.541Z,0
2017-09-09T00:57:59.560Z,0
2017-09-09T00:58:59.498Z,0
2017-09-09T01:00:00.106Z,0
2017-09-09T01:01:00.101Z,0
2017-09-09T01:01:59.749Z,0
2017-09-09T01:02:59.754Z,0
2017-09-09T01:04:00.059Z,0
2017-09-09T01:05:00.031Z,0
2017-09-09T01:06:00.001Z,0
2017-09-09T01:06:59.449Z,0
2017-09-09T01:07:59.346Z,0
2017-09-09T01:08:59.950Z,0
2017-09-09T01:09:59.967Z,0
2017-09-09T01:10:59.429Z,0
2017-09-09T01:11:59.901Z,0
2017-09-09T01:12:59.581Z,0
2017-09-09T01:13:59.545Z,0
2017-09-09T01:14:59.782Z,0
2017-09-09T01:15:59.548Z,0
2017-09-09T01:16:59.181Z,0
2017-09-09T01:17:59.801Z,0
2017-09-09T01:18:59.516Z,0
2017-09-09T01:19:59.458Z,0
2017-09-09T01:20:59.108Z,0
2017-09-09T01:22:00.026Z,0
2017-09-09T01:22:59.400Z,0
2017-09-09T01:23:59.062Z,0
2017-09-09T01:24:59.043Z,0
2017-09-09T01:25:59.072Z,0
2017-09-09T01:26:59.620Z,0
2017-09-09T01:27:59.027Z,0
2017-09-09T01:28:59.599Z,0
2017-09-09T01:29:59.399Z,0
2017-09-09T01:30:59.039Z,0
2017-09-09T01:31:59.253Z,0
2017-09-09T01:32:59.544Z,0
2017-09-09T01:33:59.500Z,0
2017-09-09T01:34:59.500Z,0
2017-09-09T01:35:58.577Z,0
2017-09-09T01:36:58.859Z,0
2017-09-09T01:37:59.148Z,0
2017-09-09T01:38:59.117Z,0
2017-09-09T01:39:58.788Z,0
2017-09-09T01:40:58.449Z,0
2017-09-09T01:41:59.087Z,0
2017-09-09T01:42:59.348Z,0
2017-09-09T01:43:59.120Z,0
2017-09-09T01:44:59.011Z,0
2017-09-09T01:45:58.672Z,0
2017-09-09T01:46:59.380Z,0
2017-09-09T01:47:58.959Z,0
2017-09-09T01:48:58.638Z,0
2017-09-09T01:49:58.297Z,0
2017-09-09T01:50:58.276Z,0
2017-09-09T01:51:59.307Z,0
2017-09-09T01:52:58.868Z,0
2017-09-09T01:53:58.860Z,0
2017-09-09T01:54:58.904Z,0
2017-09-09T01:55:58.935Z,0
2017-09-09T01:56:58.798Z,0
2017-09-09T01:57:58.781Z,0
2017-09-09T01:58:58.747Z,0
2017-09-09T01:59:58.758Z,0
2017-09-09T02:00:58.711Z,0
2017-09-09T02:01:58.707Z,0
2017-09-09T02:02:58.385Z,0
2017-09-09T02:03:58.362Z,0
2017-09-09T02:04:58.977Z,0
2017-09-09T02:05:58.648Z,0
2017-09-09T02:06:58.316Z,0
2017-09-09T02:07:58.299Z,0
2017-09-09T02:08:57.960Z,0
2017-09-09T02:09:58.248Z,0
2017-09-09T02:10:58.546Z,0
2017-09-09T02:11:58.551Z,0
2017-09-09T02:12:58.221Z,0
2017-09-09T02:13:58.540Z,0
2017-09-09T02:14:58.162Z,0
2017-09-09T02:15:58.658Z,0
2017-09-09T02:16:58.130Z,0
2017-09-09T02:17:58.739Z,0
2017-09-09T02:18:58.416Z,0
2017-09-09T02:19:58.100Z,0
2017-09-09T02:20:58.378Z,0
2017-09-09T02:21:58.340Z,0
2017-09-09T02:22:58.399Z,0
2017-09-09T02:23:58.053Z,0
2017-09-09T02:24:57.998Z,0
2017-09-09T02:25:58.618Z,0
2017-09-09T02:26:58.297Z,0
2017-09-09T02:27:58.298Z,0
2017-09-09T02:28:58.280Z,0
2017-09-09T02:29:58.296Z,0
2017-09-09T02:30:58.206Z,0
2017-09-09T02:31:58.294Z,0
2017-09-09T02:32:58.163Z,0
2017-09-09T02:33:57.872Z,0
2017-09-09T02:34:57.509Z,0
2017-09-09T02:35:58.219Z,0
2017-09-09T02:36:58.092Z,0
2017-09-09T02:37:58.119Z,0
2017-09-09T02:38:57.539Z,0
2017-09-09T02:39:58.056Z,0
2017-09-09T02:40:58.037Z,0
2017-09-09T02:41:58.420Z,0
2017-09-09T02:42:58.072Z,0
2017-09-09T02:43:57.671Z,0
2017-09-09T02:44:57.641Z,0
2017-09-09T02:45:57.618Z,0
2017-09-09T02:46:58.285Z,0
2017-09-09T02:47:57.973Z,0
2017-09-09T02:48:57.561Z,0
2017-09-09T02:49:57.860Z,0
2017-09-09T02:50:57.529Z,0
2017-09-09T02:51:57.838Z,0
2017-09-09T02:52:57.836Z,0
2017-09-09T02:53:57.838Z,0
2017-09-09T02:54:57.774Z,0
2017-09-09T02:55:57.756Z,0
2017-09-09T02:56:57.430Z,0
2017-09-09T02:57:57.749Z,0
2017-09-09T02:58:58.007Z,0
2017-09-09T02:59:57.133Z,0
2017-09-09T03:00:57.078Z,0
2017-09-09T03:01:57.328Z,0
2017-09-09T03:02:57.630Z,0
2017-09-09T03:03:57.887Z,0
2017-09-09T03:04:57.604Z,0
2017-09-09T03:05:57.567Z,0
2017-09-09T03:06:57.567Z,0
2017-09-09T03:07:57.540Z,0
2017-09-09T03:08:57.851Z,0
2017-09-09T03:09:57.803Z,0
2017-09-09T03:10:57.826Z,0
2017-09-09T03:11:57.775Z,0
2017-09-09T03:12:57.778Z,0
2017-09-09T03:13:57.736Z,0
2017-09-09T03:14:57.731Z,0
2017-09-09T03:15:57.410Z,0
2017-09-09T03:16:57.079Z,0
2017-09-09T03:17:57.048Z,0
2017-09-09T03:18:57.646Z,0
2017-09-09T03:19:57.033Z,0
2017-09-09T03:20:57.378Z,0
2017-09-09T03:21:57.602Z,0
2017-09-09T03:22:56.645Z,0
2017-09-09T03:23:57.258Z,0
2017-09-09T03:24:56.928Z,0
2017-09-09T03:25:57.582Z,0
2017-09-09T03:26:57.549Z,0
2017-09-09T03:27:57.490Z,0
2017-09-09T03:28:57.476Z,0
2017-09-09T03:29:57.439Z,0
2017-09-09T03:30:57.351Z,0
2017-09-09T03:31:57.519Z,0
2017-09-09T03:32:57.401Z,0
2017-09-09T03:33:56.584Z,0
2017-09-09T03:34:57.061Z,0
2017-09-09T03:35:57.439Z,0
2017-09-09T03:36:57.005Z,0
2017-09-09T03:37:56.680Z,0
2017-09-09T03:38:56.997Z,0
2017-09-09T03:39:57.001Z,0
2017-09-09T03:40:57.349Z,0
2017-09-09T03:41:56.309Z,0
2017-09-09T03:42:57.288Z,0
2017-09-09T03:43:57.121Z,0
2017-09-09T03:44:57.189Z,0
2017-09-09T03:45:57.178Z,0
2017-09-09T03:46:56.579Z,0
2017-09-09T03:47:57.150Z,0
2017-09-09T03:48:57.099Z,0
2017-09-09T03:49:56.468Z,0
2017-09-09T03:50:57.097Z,0
2017-09-09T03:51:56.769Z,0
2017-09-09T03:52:57.055Z,0
2017-09-09T03:53:56.729Z,0
2017-09-09T03:54:56.698Z,0
2017-09-09T03:55:56.692Z,0
2017-09-09T03:56:56.970Z,0
2017-09-09T03:57:56.649Z,0
2017-09-09T03:58:56.017Z,0
2017-09-09T03:59:56.309Z,0
2017-09-09T04:00:56.583Z,0
2017-09-09T04:01:56.250Z,0
2017-09-09T04:02:56.543Z,0
2017-09-09T04:03:56.541Z,0
2017-09-09T04:04:56.521Z,0
2017-09-09T04:05:56.196Z,0
2017-09-09T04:06:56.484Z,0
2017-09-09T04:07:56.165Z,0
2017-09-09T04:08:56.770Z,0
2017-09-09T04:09:56.429Z,0
2017-09-09T04:10:56.417Z,0
2017-09-09T04:11:56.101Z,0
2017-09-09T04:12:56.681Z,0
2017-09-09T04:13:56.670Z,0
2017-09-09T04:14:56.670Z,0
2017-09-09T04:15:56.683Z,0
2017-09-09T04:16:56.292Z,0
2017-09-09T04:17:56.289Z,0
2017-09-09T04:18:55.980Z,0
2017-09-09T04:19:56.558Z,0
2017-09-09T04:20:56.237Z,0
2017-09-09T04:21:56.568Z,0
2017-09-09T04:22:56.190Z,0
2017-09-09T04:23:56.174Z,0
2017-09-09T04:24:56.459Z,0
2017-09-09T04:25:55.824Z,0
2017-09-09T04:26:56.448Z,0
2017-09-09T04:27:55.789Z,0
2017-09-09T04:28:56.400Z,0
2017-09-09T04:29:55.772Z,0
2017-09-09T04:30:56.352Z,0
2017-09-09T04:31:56.338Z,0
2017-09-09T04:32:56.012Z,0
2017-09-09T04:33:55.678Z,0
2017-09-09T04:34:55.652Z,0
2017-09-09T04:35:56.278Z,0
2017-09-09T04:36:55.955Z,0
2017-09-09T04:37:55.644Z,0
2017-09-09T04:38:55.271Z,0
2017-09-09T04:39:56.226Z,0
2017-09-09T04:40:56.179Z,0
2017-09-09T04:41:54.921Z,0
2017-09-09T04:42:55.518Z,0
2017-09-09T04:43:55.568Z,0
2017-09-09T04:44:55.826Z,0
2017-09-09T04:45:55.478Z,0
2017-09-09T04:46:56.095Z,0
2017-09-09T04:47:55.110Z,0
2017-09-09T04:48:55.728Z,0
2017-09-09T04:49:56.039Z,0
2017-09-09T04:50:55.702Z,0
2017-09-09T04:51:56.028Z,0
2017-09-09T04:52:55.872Z,0
2017-09-09T04:53:55.642Z,0
2017-09-09T04:54:55.618Z,0
2017-09-09T04:55:55.302Z,0
2017-09-09T04:56:55.269Z,0
2017-09-09T04:57:55.568Z,0
2017-09-09T04:58:55.300Z,0
2017-09-09T04:59:55.833Z,0
2017-09-09T05:00:55.832Z,0
2017-09-09T05:01:55.799Z,0
2017-09-09T05:02:55.179Z,0
2017-09-09T05:03:55.381Z,0
2017-09-09T05:04:55.733Z,0
2017-09-09T05:05:55.112Z,0
2017-09-09T05:06:55.240Z,0
2017-09-09T05:07:55.429Z,0
2017-09-09T05:08:55.380Z,0
2017-09-09T05:09:55.168Z,0
2017-09-09T05:10:55.322Z,0
2017-09-09T05:11:55.348Z,0
2017-09-09T05:12:55.601Z,0
2017-09-09T05:13:55.330Z,0
2017-09-09T05:14:55.601Z,0
2017-09-09T05:15:54.972Z,0
2017-09-09T05:16:55.040Z,0
2017-09-09T05:17:55.299Z,0
2017-09-09T05:18:55.499Z,0
2017-09-09T05:19:55.180Z,0
2017-09-09T05:20:55.141Z,0
2017-09-09T05:21:55.161Z,0
2017-09-09T05:22:55.119Z,0
2017-09-09T05:23:54.812Z,0
2017-09-09T05:24:54.886Z,0
2017-09-09T05:25:55.402Z,0
2017-09-09T05:26:54.749Z,0
2017-09-09T05:27:55.052Z,0
2017-09-09T05:28:55.311Z,0
2017-09-09T05:29:54.997Z,0
2017-09-09T05:30:54.972Z,0
2017-09-09T05:31:55.292Z,0
2017-09-09T05:32:55.281Z,0
2017-09-09T05:33:54.610Z,0
2017-09-09T05:34:54.907Z,0
2017-09-09T05:35:55.191Z,0
2017-09-09T05:36:55.198Z,0
2017-09-09T05:37:55.160Z,0
2017-09-09T05:38:55.150Z,0
2017-09-09T05:39:54.859Z,0
2017-09-09T05:40:55.112Z,0
2017-09-09T05:41:54.843Z,0
2017-09-09T05:42:55.089Z,5
2017-09-09T05:43:54.750Z,5
2017-09-09T05:44:54.099Z,5
2017-09-09T05:45:53.778Z,5
2017-09-09T05:46:55.007Z,5
2017-09-09T05:47:54.686Z,5
2017-09-09T05:48:54.650Z,5
2017-09-09T05:49:54.959Z,5
2017-09-09T05:50:54.631Z,5
2017-09-09T05:51:54.929Z,5
2017-09-09T05:52:54.580Z,5
2017-09-09T05:53:54.570Z,5
2017-09-09T05:54:54.566Z,5
2017-09-09T05:55:54.529Z,5
2017-09-09T05:56:54.819Z,5
2017-09-09T05:57:54.811Z,5
2017-09-09T05:58:54.786Z,10
2017-09-09T05:59:54.709Z,10
2017-09-09T06:00:54.771Z,10
2017-09-09T06:01:54.419Z,10
2017-09-09T06:02:54.110Z,10
2017-09-09T06:03:54.722Z,10
2017-09-09T06:04:54.371Z,10
2017-09-09T06:05:54.028Z,10
2017-09-09T06:06:54.654Z,15
2017-09-09T06:07:54.621Z,15
2017-09-09T06:08:54.392Z,15
2017-09-09T06:09:54.582Z,15
2017-09-09T06:10:54.272Z,15
2017-09-09T06:11:54.570Z,15
2017-09-09T06:12:54.239Z,10
2017-09-09T06:13:54.200Z,10
2017-09-09T06:14:54.199Z,10
2017-09-09T06:15:53.872Z,10
2017-09-09T06:16:54.486Z,10
2017-09-09T06:17:54.141Z,10
2017-09-09T06:18:54.105Z,10
2017-09-09T06:19:54.093Z,10
2017-09-09T06:20:54.087Z,10
2017-09-09T06:21:53.759Z,10
2017-09-09T06:22:54.049Z,10
2017-09-09T06:23:54.344Z,10
2017-09-09T06:24:54.009Z,10
2017-09-09T06:25:53.732Z,10
2017-09-09T06:26:53.732Z,10
2017-09-09T06:27:54.274Z,10
2017-09-09T06:28:53.950Z,10
2017-09-09T06:29:53.350Z,10
2017-09-09T06:30:53.589Z,10
2017-09-09T06:31:53.554Z,10
2017-09-09T06:32:53.552Z,10
2017-09-09T06:33:53.531Z,15
2017-09-09T06:34:53.860Z,15
2017-09-09T06:35:53.184Z,15
2017-09-09T06:36:54.105Z,15
2017-09-09T06:37:53.787Z,15
2017-09-09T06:38:53.726Z,15
2017-09-09T06:39:53.108Z,15
2017-09-09T06:40:54.019Z,20
2017-09-09T06:41:53.691Z,20
2017-09-09T06:42:53.802Z,20
2017-09-09T06:43:53.344Z,15
2017-09-09T06:44:52.710Z,15
2017-09-09T06:45:53.381Z,15
2017-09-09T06:46:52.975Z,10
2017-09-09T06:47:53.918Z,10
2017-09-09T06:48:53.562Z,10
2017-09-09T06:49:53.570Z,10
2017-09-09T06:50:53.960Z,15
2017-09-09T06:51:52.910Z,15
2017-09-09T06:52:53.979Z,20
2017-09-09T06:53:53.503Z,20
2017-09-09T06:54:53.466Z,20
2017-09-09T06:55:53.771Z,15
2017-09-09T06:56:53.732Z,15
2017-09-09T06:57:53.732Z,15
2017-09-09T06:58:53.700Z,10
2017-09-09T06:59:53.070Z,10
2017-09-09T07:00:53.370Z,10
2017-09-09T07:01:53.344Z,10
2017-09-09T07:02:53.644Z,5
2017-09-09T07:03:53.337Z,5
2017-09-09T07:04:53.331Z,5
2017-09-09T07:05:52.962Z,5
2017-09-09T07:06:52.636Z,10
2017-09-09T07:07:53.257Z,15
2017-09-09T07:08:52.893Z,20
2017-09-09T07:09:53.197Z,20
2017-09-09T07:10:52.860Z,20
2017-09-09T07:11:53.619Z,25
2017-09-09T07:12:52.844Z,25
2017-09-09T07:13:52.802Z,25
2017-09-09T07:14:52.799Z,25
2017-09-09T07:15:53.128Z,30
2017-09-09T07:16:53.071Z,30
2017-09-09T07:17:52.760Z,30
2017-09-09T07:18:52.721Z,30
2017-09-09T07:19:53.012Z,30
2017-09-09T07:20:53.329Z,35
2017-09-09T07:21:53.082Z,35
2017-09-09T07:22:52.659Z,35
2017-09-09T07:23:52.643Z,35
2017-09-09T07:24:52.626Z,30
2017-09-09T07:25:52.982Z,30
2017-09-09T07:26:53.271Z,35
2017-09-09T07:27:52.920Z,35
2017-09-09T07:28:53.152Z,35
2017-09-09T07:29:52.834Z,35
2017-09-09T07:30:52.832Z,35
2017-09-09T07:31:52.819Z,35
2017-09-09T07:32:52.898Z,35
2017-09-09T07:33:53.079Z,40
2017-09-09T07:34:53.082Z,40
2017-09-09T07:35:53.043Z,40
2017-09-09T07:36:52.723Z,40
2017-09-09T07:37:52.707Z,40
2017-09-09T07:38:53.011Z,40
2017-09-09T07:39:52.685Z,45
2017-09-09T07:40:52.349Z,45
2017-09-09T07:41:52.633Z,50
2017-09-09T07:42:53.029Z,50
2017-09-09T07:43:52.918Z,50
2017-09-09T07:44:53.003Z,50
2017-09-09T07:45:52.539Z,50
2017-09-09T07:46:52.847Z,50
2017-09-09T07:47:52.858Z,55
2017-09-09T07:48:52.845Z,50
2017-09-09T07:49:52.492Z,50
2017-09-09T07:50:52.537Z,50
2017-09-09T07:51:52.869Z,55
2017-09-09T07:52:52.762Z,55
2017-09-09T07:53:52.098Z,55
2017-09-09T07:54:52.418Z,60
2017-09-09T07:55:52.420Z,65
2017-09-09T07:56:52.465Z,80
2017-09-09T07:57:52.348Z,90
2017-09-09T07:58:52.441Z,90
2017-09-09T07:59:52.303Z,105
2017-09-09T08:00:51.978Z,90
2017-09-09T08:01:52.719Z,100
2017-09-09T08:02:51.996Z,95
2017-09-09T08:03:52.246Z,95
2017-09-09T08:04:52.017Z,100
2017-09-09T08:05:52.199Z,75
2017-09-09T08:06:52.257Z,65
2017-09-09T08:07:52.568Z,60
2017-09-09T08:08:52.159Z,65
2017-09-09T08:09:52.495Z,80
2017-09-09T08:10:52.136Z,75
2017-09-09T08:11:52.446Z,80
2017-09-09T08:12:52.407Z,95
2017-09-09T08:13:52.061Z,80
2017-09-09T08:14:52.119Z,70
2017-09-09T08:15:52.351Z,55
2017-09-09T08:16:52.382Z,45
2017-09-09T08:17:52.378Z,40
2017-09-09T08:18:51.998Z,40
2017-09-09T08:19:51.639Z,45
2017-09-09T08:20:51.936Z,55
2017-09-09T08:21:51.935Z,75
2017-09-09T08:22:51.908Z,85
2017-09-09T08:23:51.279Z,90
2017-09-09T08:24:52.193Z,115
2017-09-09T08:25:51.537Z,125
2017-09-09T08:26:51.519Z,130
2017-09-09T08:27:51.820Z,150
2017-09-09T08:28:51.849Z,195
2017-09-09T08:29:51.889Z,195
2017-09-09T08:30:51.832Z,360
2017-09-09T08:31:51.428Z,210
2017-09-09T08:32:52.116Z,175
2017-09-09T08:33:51.728Z,130
2017-09-09T08:34:51.807Z,120
2017-09-09T08:35:51.708Z,145
2017-09-09T08:36:51.681Z,120
2017-09-09T08:37:51.355Z,130
2017-09-09T08:38:51.651Z,160
2017-09-09T08:39:51.941Z,135
2017-09-09T08:40:51.279Z,120
2017-09-09T08:41:51.576Z,105
2017-09-09T08:42:51.249Z,95
2017-09-09T08:43:51.912Z,80
2017-09-09T08:44:51.843Z,80
2017-09-09T08:45:51.208Z,105
2017-09-09T08:46:51.561Z,150
2017-09-09T08:47:51.870Z,135
2017-09-09T08:48:51.800Z,110
2017-09-09T08:49:51.150Z,115
2017-09-09T08:50:51.447Z,85
2017-09-09T08:51:51.097Z,80
2017-09-09T08:52:51.798Z,60
2017-09-09T08:53:51.401Z,55
2017-09-09T08:54:51.665Z,65
2017-09-09T08:55:51.714Z,60
2017-09-09T08:56:51.004Z,65
2017-09-09T08:57:51.302Z,60
2017-09-09T08:58:50.678Z,60
2017-09-09T08:59:51.401Z,60
2017-09-09T09:00:51.247Z,55
2017-09-09T09:01:51.560Z,60
2017-09-09T09:02:50.599Z,60
2017-09-09T09:03:51.548Z,60
2017-09-09T09:04:50.539Z,65
2017-09-09T09:05:50.559Z,65
2017-09-09T09:06:50.526Z,60
2017-09-09T09:07:51.154Z,60
2017-09-09T09:08:51.434Z,65
2017-09-09T09:09:51.426Z,60
2017-09-09T09:10:51.070Z,70
2017-09-09T09:11:51.396Z,90
2017-09-09T09:12:51.447Z,100
2017-09-09T09:13:51.036Z,105
2017-09-09T09:14:50.758Z,95
2017-09-09T09:15:51.009Z,965
2017-09-09T09:16:51.295Z,790
2017-09-09T09:17:50.670Z,95
2017-09-09T09:18:50.637Z,75
2017-09-09T09:19:50.611Z,75
2017-09-09T09:20:50.380Z,110
2017-09-09T09:21:50.607Z,85
2017-09-09T09:22:50.907Z,100
2017-09-09T09:23:50.658Z,240
2017-09-09T09:24:51.185Z,360
2017-09-09T09:25:51.147Z,355
2017-09-09T09:26:50.530Z,265
2017-09-09T09:27:50.496Z,155
2017-09-09T09:28:51.119Z,130
2017-09-09T09:29:50.198Z,240
2017-09-09T09:30:50.727Z,130
2017-09-09T09:31:50.756Z,110
2017-09-09T09:32:50.410Z,120
2017-09-09T09:33:51.028Z,195
2017-09-09T09:34:50.380Z,165
2017-09-09T09:35:50.378Z,140
2017-09-09T09:36:50.956Z,115
2017-09-09T09:37:50.635Z,85
2017-09-09T09:38:50.328Z,95
2017-09-09T09:39:50.420Z,90
2017-09-09T09:40:50.896Z,105
2017-09-09T09:41:50.606Z,140
2017-09-09T09:42:50.546Z,220
2017-09-09T09:43:50.656Z,445
2017-09-09T09:44:50.563Z,1105
2017-09-09T09:45:50.212Z,90
2017-09-09T09:46:50.297Z,95
2017-09-09T09:47:50.789Z,160
2017-09-09T09:48:50.178Z,120
2017-09-09T09:49:50.137Z,120
2017-09-09T09:50:50.433Z,100
2017-09-09T09:51:50.425Z,105
2017-09-09T09:52:50.392Z,150
2017-09-09T09:53:50.396Z,215
2017-09-09T09:54:50.391Z,135
2017-09-09T09:55:50.661Z,145
2017-09-09T09:56:50.328Z,135
2017-09-09T09:57:50.658Z,210
2017-09-09T09:58:50.299Z,180
2017-09-09T09:59:50.290Z,125
2017-09-09T10:00:50.588Z,105
2017-09-09T10:01:50.333Z,65
2017-09-09T10:02:50.262Z,70
2017-09-09T10:03:50.577Z,80
2017-09-09T10:04:50.527Z,80
2017-09-09T10:05:50.267Z,80
2017-09-09T10:06:50.220Z,85
2017-09-09T10:07:50.486Z,85
2017-09-09T10:08:50.479Z,85
2017-09-09T10:09:49.909Z,85
2017-09-09T10:10:50.139Z,80
2017-09-09T10:11:50.112Z,75
2017-09-09T10:12:50.400Z,70
2017-09-09T10:13:50.109Z,55
2017-09-09T10:14:50.383Z,45
2017-09-09T10:15:50.350Z,40
2017-09-09T10:16:50.016Z,30
2017-09-09T10:17:50.031Z,35
2017-09-09T10:18:49.999Z,40
2017-09-09T10:19:50.009Z,50
2017-09-09T10:20:49.950Z,60
2017-09-09T10:21:49.990Z,60
2017-09-09T10:22:50.228Z,70
2017-09-09T10:23:49.924Z,75
2017-09-09T10:24:49.891Z,85
2017-09-09T10:25:49.860Z,95
2017-09-09T10:26:49.538Z,255
2017-09-09T10:27:49.529Z,270
2017-09-09T10:28:49.498Z,285
2017-09-09T10:29:49.810Z,245
2017-09-09T10:30:49.897Z,215
2017-09-09T10:31:50.101Z,220
2017-09-09T10:32:50.041Z,195
2017-09-09T10:33:49.741Z,150
2017-09-09T10:34:50.130Z,115
2017-09-09T10:35:50.049Z,95
2017-09-09T10:36:50.029Z,85
2017-09-09T10:37:49.977Z,75
2017-09-09T10:38:49.961Z,65
2017-09-09T10:39:49.971Z,60
2017-09-09T10:40:49.939Z,60
2017-09-09T10:41:49.717Z,60
2017-09-09T10:42:49.900Z,65
2017-09-09T10:43:49.900Z,75
2017-09-09T10:44:49.570Z,100
2017-09-09T10:45:49.871Z,120
2017-09-09T10:46:48.909Z,145
2017-09-09T10:47:49.211Z,180
2017-09-09T10:48:49.941Z,185
2017-09-09T10:49:49.481Z,160
2017-09-09T10:50:49.788Z,130
2017-09-09T10:51:49.131Z,110
2017-09-09T10:52:49.861Z,105
2017-09-09T10:53:49.738Z,105
2017-09-09T10:54:49.080Z,120
2017-09-09T10:55:49.409Z,145
2017-09-09T10:56:49.356Z,160
2017-09-09T10:57:49.657Z,175
2017-09-09T10:58:49.456Z,185
2017-09-09T10:59:49.313Z,185
2017-09-09T11:00:49.310Z,180
2017-09-09T11:01:48.664Z,170
2017-09-09T11:02:49.330Z,150
2017-09-09T11:03:49.570Z,145
2017-09-09T11:04:49.234Z,170
2017-09-09T11:05:49.259Z,285
2017-09-09T11:06:49.223Z,335
2017-09-09T11:07:49.261Z,315
2017-09-09T11:08:48.553Z,275
2017-09-09T11:09:49.191Z,265
2017-09-09T11:10:49.230Z,260
2017-09-09T11:11:49.461Z,265
2017-09-09T11:12:49.139Z,255
2017-09-09T11:13:49.189Z,250
2017-09-09T11:14:49.419Z,250
2017-09-09T11:15:49.523Z,250
2017-09-09T11:16:49.415Z,250
2017-09-09T11:17:49.060Z,255
2017-09-09T11:18:49.356Z,260
2017-09-09T11:19:48.810Z,275
2017-09-09T11:20:49.326Z,285
2017-09-09T11:21:49.314Z,290
2017-09-09T11:22:49.292Z,270
2017-09-09T11:23:49.310Z,240
2017-09-09T11:24:49.332Z,155
2017-09-09T11:25:48.942Z,155
2017-09-09T11:26:48.619Z,150
2017-09-09T11:27:48.945Z,135
2017-09-09T11:28:48.298Z,120
2017-09-09T11:29:48.566Z,115
2017-09-09T11:30:49.188Z,130
2017-09-09T11:31:49.166Z,265
2017-09-09T11:32:48.851Z,295
2017-09-09T11:33:48.533Z,305
2017-09-09T11:34:48.842Z,300
2017-09-09T11:35:49.100Z,290
2017-09-09T11:36:49.116Z,295
2017-09-09T11:37:48.466Z,305
2017-09-09T11:38:48.462Z,295
2017-09-09T11:39:48.747Z,300
2017-09-09T11:40:49.050Z,305
2017-09-09T11:41:48.410Z,300
2017-09-09T11:42:48.706Z,295
2017-09-09T11:43:48.055Z,285
2017-09-09T11:44:49.009Z,285
2017-09-09T11:45:49.000Z,270
2017-09-09T11:46:48.162Z,260
2017-09-09T11:47:48.952Z,255
2017-09-09T11:48:48.956Z,250
2017-09-09T11:49:48.632Z,250
2017-09-09T11:50:48.610Z,250
2017-09-09T11:51:48.933Z,255
2017-09-09T11:52:48.266Z,260
2017-09-09T11:53:48.879Z,175
2017-09-09T11:54:48.569Z,270
2017-09-09T11:55:48.562Z,185
2017-09-09T11:56:48.530Z,275
2017-09-09T11:57:48.863Z,270
2017-09-09T11:58:48.500Z,275
2017-09-09T11:59:48.810Z,285
2017-09-09T12:00:48.798Z,285
2017-09-09T12:01:48.156Z,190
2017-09-09T12:02:48.789Z,170
2017-09-09T12:03:48.441Z,205
2017-09-09T12:04:48.437Z,220
2017-09-09T12:05:48.164Z,170
2017-09-09T12:06:48.731Z,215
2017-09-09T12:07:48.395Z,255
2017-09-09T12:08:48.092Z,205
2017-09-09T12:09:48.356Z,235
2017-09-09T12:10:48.412Z,185
2017-09-09T12:11:48.363Z,175
2017-09-09T12:12:48.790Z,180
2017-09-09T12:13:48.336Z,195
2017-09-09T12:14:48.647Z,200
2017-09-09T12:15:48.617Z,210
2017-09-09T12:16:48.619Z,210
2017-09-09T12:17:48.449Z,205
2017-09-09T12:18:48.008Z,320
2017-09-09T12:19:47.980Z,320
2017-09-09T12:20:48.548Z,305
2017-09-09T12:21:47.944Z,305
2017-09-09T12:22:48.233Z,315
2017-09-09T12:23:48.215Z,315
2017-09-09T12:24:48.215Z,305
2017-09-09T12:25:47.877Z,295
2017-09-09T12:26:48.253Z,290
2017-09-09T12:27:48.572Z,200
2017-09-09T12:28:48.182Z,185
2017-09-09T12:29:48.147Z,205
2017-09-09T12:30:47.835Z,185
2017-09-09T12:31:48.118Z,170
2017-09-09T12:32:48.151Z,155
2017-09-09T12:33:48.100Z,140
2017-09-09T12:34:48.168Z,125
2017-09-09T12:35:48.097Z,105
2017-09-09T12:36:48.389Z,95
2017-09-09T12:37:48.040Z,85
2017-09-09T12:38:48.349Z,85
2017-09-09T12:39:48.041Z,80
2017-09-09T12:40:48.015Z,90
2017-09-09T12:41:48.304Z,125
2017-09-09T12:42:47.970Z,155
2017-09-09T12:43:47.967Z,160
2017-09-09T12:44:47.661Z,165
2017-09-09T12:45:48.272Z,190
2017-09-09T12:46:48.239Z,220
2017-09-09T12:47:47.926Z,240
2017-09-09T12:48:48.257Z,305
2017-09-09T12:49:48.209Z,320
2017-09-09T12:50:48.208Z,315
2017-09-09T12:51:47.875Z,250
2017-09-09T12:52:48.164Z,225
2017-09-09T12:53:47.846Z,260
2017-09-09T12:54:48.143Z,205
2017-09-09T12:55:48.112Z,195
2017-09-09T12:56:47.795Z,170
2017-09-09T12:57:48.114Z,165
2017-09-09T12:58:48.114Z,140
2017-09-09T12:59:47.455Z,135
2017-09-09T13:00:48.074Z,140
2017-09-09T13:01:47.853Z,155
2017-09-09T13:02:47.863Z,180
2017-09-09T13:03:48.031Z,175
2017-09-09T13:04:47.400Z,185
2017-09-09T13:05:48.037Z,185
2017-09-09T13:06:47.690Z,170
2017-09-09T13:07:47.675Z,155
2017-09-09T13:08:48.012Z,145
2017-09-09T13:09:48.007Z,135
2017-09-09T13:10:47.680Z,125
2017-09-09T13:11:47.905Z,120
2017-09-09T13:12:47.916Z,110
2017-09-09T13:13:47.600Z,105
2017-09-09T13:14:47.589Z,95
2017-09-09T13:15:47.865Z,90
2017-09-09T13:16:47.639Z,85
2017-09-09T13:17:47.513Z,85
2017-09-09T13:18:47.513Z,80
2017-09-09T13:19:47.544Z,80
2017-09-09T13:20:47.535Z,80
2017-09-09T13:21:47.482Z,80
2017-09-09T13:22:47.762Z,80
2017-09-09T13:23:47.502Z,75
2017-09-09T13:24:47.420Z,75
2017-09-09T13:25:47.480Z,75
2017-09-09T13:26:47.700Z,75
2017-09-09T13:27:47.811Z,75
2017-09-09T13:28:47.695Z,75
2017-09-09T13:29:47.036Z,75
2017-09-09T13:30:47.720Z,75
2017-09-09T13:31:47.486Z,75
2017-09-09T13:32:47.652Z,70
2017-09-09T13:33:47.291Z,65
2017-09-09T13:34:47.310Z,60
2017-09-09T13:35:47.295Z,60
2017-09-09T13:36:47.571Z,60
2017-09-09T13:37:47.690Z,55
2017-09-09T13:38:46.950Z,55
2017-09-09T13:39:47.585Z,50
2017-09-09T13:40:47.545Z,50
2017-09-09T13:41:47.508Z,50
2017-09-09T13:42:47.483Z,45
2017-09-09T13:43:46.534Z,45
2017-09-09T13:44:46.842Z,40
2017-09-09T13:45:47.196Z,40
2017-09-09T13:46:47.136Z,40
2017-09-09T13:47:47.098Z,35
2017-09-09T13:48:47.160Z,35
2017-09-09T13:49:47.199Z,30
2017-09-09T13:50:47.061Z,30
2017-09-09T13:51:46.772Z,25
2017-09-09T13:52:46.720Z,20
2017-09-09T13:53:47.312Z,20
2017-09-09T13:54:47.011Z,20
2017-09-09T13:55:47.049Z,20
2017-09-09T13:56:47.344Z,20
2017-09-09T13:57:47.306Z,20
2017-09-09T13:58:47.279Z,15
2017-09-09T13:59:46.941Z,15
2017-09-09T14:00:47.210Z,15
2017-09-09T14:01:46.600Z,15
2017-09-09T14:02:46.901Z,15
2017-09-09T14:03:46.848Z,15
2017-09-09T14:04:47.166Z,15
2017-09-09T14:05:47.182Z,15
2017-09-09T14:06:47.151Z,15
2017-09-09T14:07:46.173Z,20
2017-09-09T14:08:46.816Z,20
2017-09-09T14:09:46.467Z,20
2017-09-09T14:10:46.773Z,25
2017-09-09T14:11:46.752Z,25
2017-09-09T14:12:46.750Z,30
2017-09-09T14:13:47.030Z,30
2017-09-09T14:14:46.400Z,35
2017-09-09T14:15:46.979Z,40
2017-09-09T14:16:47.010Z,40
2017-09-09T14:17:46.634Z,45
2017-09-09T14:18:46.683Z,55
2017-09-09T14:19:46.622Z,60